Cap Cleveland — 9HA3340 — position and weather

sailwx.info

Track history (hours):
 
Tides and Currents Weather Stations Pressure Air Temp Water Temp Dewpoint Dewpoint Depression Visibility Wind Speed Wind Dir Waves Ship Positions

Cap Cleveland

Last reported at 2017-Nov-23 18:00 UTC. Time now 2017-Nov-23 20:56 UTC.
Position S 01°30' E 143°12'.

Length 228 m; draft 10.9 m.

Type: Ship (hazmat cat A). MMSI: 229452000.

Wind from 280 at 6 knots

Barometer 1006.9 mb
Air temperature 28.0 ° C
Visibility: greater than 10.8 NM
Dewpoint 26.0 ° C

Date/timePositionNaut miles runAvg speedWind from/ knotsBaromVisibWave heightAir tempDewpointWater temp
2017-Nov-23 18:00S 01°30' E 143°12'14918.6 280 / 61006.910.8 28.026.0
2017-Nov-23 10:00N 00°06' E 141°18'7218.1 280 / 81007.510.8 27.024.330.0
2017-Nov-23 06:00N 00°54' E 140°24'7218.1 190 / 111005.410.8 30.025.3
2017-Nov-23 02:00N 01°42' E 139°30'9423.4 1007.110.8
2017-Nov-22 22:00N 02°42' E 138°18'5914.8 150 / 51006.910.8 29.026.930.2
2017-Nov-22 18:00N 03°24' E 137°36'13218.8 130 / 41005.210.8 29.524.8
2017-Nov-22 11:00N 04°48' E 135°54'10621.2 050 / 201006.8 5.4
2017-Nov-22 06:00N 06°00' E 134°36'   060 / 181005.210.8 32.529.329.0
2017-Nov-18 13:31N 21°53' E 114°59'216.2
2017-Nov-18 13:23N 21°54' E 114°57'616.8
2017-Nov-18 13:00N 21°56' E 114°50'917.2
2017-Nov-18 12:30N 21°59' E 114°42'917.4
2017-Nov-18 12:00N 22°01' E 114°32'917.8
2017-Nov-18 11:30N 22°05' E 114°24'917.0
2017-Nov-18 11:00N 22°07' E 114°15'714.2
2017-Nov-18 10:30N 22°13' E 114°10'7 0.5
2017-Nov-17 19:08N 22°18' E 114°06'312.0
2017-Nov-17 18:55N 22°16' E 114°07'7 8.9
2017-Nov-17 18:05N 22°11' E 114°12'7 8.1
2017-Nov-17 17:16N 22°08' E 114°19'311.6
2017-Nov-17 17:00N 22°09' E 114°22'913.2
2017-Nov-17 16:18N 22°17' E 114°28'412.6
2017-Nov-17 16:00N 22°20' E 114°29'714.8
2017-Nov-17 15:30N 22°27' E 114°27'611.9
2017-Nov-17 15:01N 22°32' E 114°23'713.0
2017-Nov-17 14:30N 22°34' E 114°16'0 0.8
2017-Nov-17 13:59N 22°34' E 114°16'0 0.0
2017-Nov-17 13:29N 22°34' E 114°16'0 0.0
2017-Nov-17 12:59N 22°34' E 114°16'0 0.0
2017-Nov-17 12:29N 22°34' E 114°16'0 0.0
2017-Nov-17 11:59N 22°34' E 114°16'0 0.0
2017-Nov-17 11:29N 22°34' E 114°16'0 0.0
2017-Nov-17 10:59N 22°34' E 114°16'0 0.0
2017-Nov-17 10:29N 22°34' E 114°16'0 0.0
2017-Nov-17 09:59N 22°34' E 114°16'0 0.0
2017-Nov-17 09:29N 22°34' E 114°16'0 0.0
2017-Nov-17 08:56N 22°34' E 114°16'0 0.0
2017-Nov-17 08:29N 22°34' E 114°16'0 0.0
2017-Nov-17 07:56N 22°34' E 114°16'0 0.0
2017-Nov-17 07:29N 22°34' E 114°16'0 0.0
2017-Nov-17 06:59N 22°34' E 114°16'0 0.0
2017-Nov-17 06:29N 22°34' E 114°16'0 0.3
2017-Nov-17 06:00N 22°34' E 114°16'2 4.5
2017-Nov-17 05:30N 22°34' E 114°19'714.2
2017-Nov-17 05:00N 22°30' E 114°25'612.2
2017-Nov-17 04:30N 22°25' E 114°29'816.2
2017-Nov-17 04:00N 22°22' E 114°37'918.3
2017-Nov-17 03:30N 22°22' E 114°47'1019.3
2017-Nov-17 03:00N 22°22' E 114°57'1019.4
2017-Nov-17 02:30N 22°22' E 115°08'62016.1
2017-Nov-15 11:59N 30°35' E 122°07'3 3.4
2017-Nov-15 11:14N 30°36' E 122°05'0 0.0
2017-Nov-15 10:56N 30°36' E 122°05'0 0.0
2017-Nov-15 10:29N 30°36' E 122°05'0 0.0
2017-Nov-15 09:59N 30°36' E 122°05'0 0.0
2017-Nov-15 08:11N 30°36' E 122°05'0 0.0
2017-Nov-15 07:53N 30°36' E 122°05'0 0.0
2017-Nov-15 07:23N 30°36' E 122°05'0 0.0
2017-Nov-15 07:01N 30°36' E 122°05'0 0.0
2017-Nov-15 06:27N 30°36' E 122°05'0 0.0
2017-Nov-15 05:51N 30°36' E 122°05'0 0.0
2017-Nov-15 05:27N 30°36' E 122°05'0 0.0
2017-Nov-15 04:51N 30°36' E 122°05'0 0.0
2017-Nov-15 04:18N 30°36' E 122°05'0 0.0
2017-Nov-15 03:57N 30°36' E 122°05'0 0.0
2017-Nov-15 03:09N 30°36' E 122°05'0 0.0
2017-Nov-15 02:51N 30°36' E 122°05'0 0.0
2017-Nov-15 02:21N 30°36' E 122°05'0 0.0
2017-Nov-15 01:45N 30°36' E 122°05'2 0.8
2017-Nov-14 23:42N 30°36' E 122°07'  
Track history (hours):
 
Tides and Currents Weather Stations Pressure Air Temp Water Temp Dewpoint Dewpoint Depression Visibility Wind Speed Wind Dir Waves Ship Positions

Cap Cleveland

Last reported at 2017-Nov-23 18:00 UTC. Time now 2017-Nov-23 20:56 UTC.
Position S 01°30' E 143°12'.

Length 228 m; draft 10.9 m.

Type: Ship (hazmat cat A). MMSI: 229452000.

Wind from 280 at 6 knots

Barometer 1006.9 mb
Air temperature 28.0 ° C
Visibility: greater than 10.8 NM
Dewpoint 26.0 ° C

Date/timePositionNaut miles runAvg speedWind from/ knotsBaromVisibWave heightAir tempDewpointWater temp
2017-Nov-23 18:00S 01°30' E 143°12'14918.6 280 / 61006.910.8 28.026.0
2017-Nov-23 10:00N 00°06' E 141°18'7218.1 280 / 81007.510.8 27.024.330.0
2017-Nov-23 06:00N 00°54' E 140°24'7218.1 190 / 111005.410.8 30.025.3
2017-Nov-23 02:00N 01°42' E 139°30'9423.4 1007.110.8
2017-Nov-22 22:00N 02°42' E 138°18'5914.8 150 / 51006.910.8 29.026.930.2
2017-Nov-22 18:00N 03°24' E 137°36'13218.8 130 / 41005.210.8 29.524.8
2017-Nov-22 11:00N 04°48' E 135°54'10621.2 050 / 201006.8 5.4
2017-Nov-22 06:00N 06°00' E 134°36'   060 / 181005.210.8 32.529.329.0
2017-Nov-18 13:31N 21°53' E 114°59'216.2
2017-Nov-18 13:23N 21°54' E 114°57'616.8
2017-Nov-18 13:00N 21°56' E 114°50'917.2
2017-Nov-18 12:30N 21°59' E 114°42'917.4
2017-Nov-18 12:00N 22°01' E 114°32'917.8
2017-Nov-18 11:30N 22°05' E 114°24'917.0
2017-Nov-18 11:00N 22°07' E 114°15'714.2
2017-Nov-18 10:30N 22°13' E 114°10'7 0.5
2017-Nov-17 19:08N 22°18' E 114°06'312.0
2017-Nov-17 18:55N 22°16' E 114°07'7 8.9
2017-Nov-17 18:05N 22°11' E 114°12'7 8.1
2017-Nov-17 17:16N 22°08' E 114°19'311.6
2017-Nov-17 17:00N 22°09' E 114°22'913.2
2017-Nov-17 16:18N 22°17' E 114°28'412.6
2017-Nov-17 16:00N 22°20' E 114°29'714.8
2017-Nov-17 15:30N 22°27' E 114°27'611.9
2017-Nov-17 15:01N 22°32' E 114°23'713.0
2017-Nov-17 14:30N 22°34' E 114°16'0 0.8
2017-Nov-17 13:59N 22°34' E 114°16'0 0.0
2017-Nov-17 13:29N 22°34' E 114°16'0 0.0
2017-Nov-17 12:59N 22°34' E 114°16'0 0.0
2017-Nov-17 12:29N 22°34' E 114°16'0 0.0
2017-Nov-17 11:59N 22°34' E 114°16'0 0.0
2017-Nov-17 11:29N 22°34' E 114°16'0 0.0
2017-Nov-17 10:59N 22°34' E 114°16'0 0.0
2017-Nov-17 10:29N 22°34' E 114°16'0 0.0
2017-Nov-17 09:59N 22°34' E 114°16'0 0.0
2017-Nov-17 09:29N 22°34' E 114°16'0 0.0
2017-Nov-17 08:56N 22°34' E 114°16'0 0.0
2017-Nov-17 08:29N 22°34' E 114°16'0 0.0
2017-Nov-17 07:56N 22°34' E 114°16'0 0.0
2017-Nov-17 07:29N 22°34' E 114°16'0 0.0
2017-Nov-17 06:59N 22°34' E 114°16'0 0.0
2017-Nov-17 06:29N 22°34' E 114°16'0 0.3
2017-Nov-17 06:00N 22°34' E 114°16'2 4.5
2017-Nov-17 05:30N 22°34' E 114°19'714.2
2017-Nov-17 05:00N 22°30' E 114°25'612.2
2017-Nov-17 04:30N 22°25' E 114°29'816.2
2017-Nov-17 04:00N 22°22' E 114°37'918.3
2017-Nov-17 03:30N 22°22' E 114°47'1019.3
2017-Nov-17 03:00N 22°22' E 114°57'1019.4
2017-Nov-17 02:30N 22°22' E 115°08'62016.1
2017-Nov-15 11:59N 30°35' E 122°07'3 3.4
2017-Nov-15 11:14N 30°36' E 122°05'0 0.0
2017-Nov-15 10:56N 30°36' E 122°05'0 0.0
2017-Nov-15 10:29N 30°36' E 122°05'0 0.0
2017-Nov-15 09:59N 30°36' E 122°05'0 0.0
2017-Nov-15 08:11N 30°36' E 122°05'0 0.0
2017-Nov-15 07:53N 30°36' E 122°05'0 0.0
2017-Nov-15 07:23N 30°36' E 122°05'0 0.0
2017-Nov-15 07:01N 30°36' E 122°05'0 0.0
2017-Nov-15 06:27N 30°36' E 122°05'0 0.0
2017-Nov-15 05:51N 30°36' E 122°05'0 0.0
2017-Nov-15 05:27N 30°36' E 122°05'0 0.0
2017-Nov-15 04:51N 30°36' E 122°05'0 0.0
2017-Nov-15 04:18N 30°36' E 122°05'0 0.0
2017-Nov-15 03:57N 30°36' E 122°05'0 0.0
2017-Nov-15 03:09N 30°36' E 122°05'0 0.0
2017-Nov-15 02:51N 30°36' E 122°05'0 0.0
2017-Nov-15 02:21N 30°36' E 122°05'0 0.0
2017-Nov-15 01:45N 30°36' E 122°05'2 0.8
2017-Nov-14 23:42N 30°36' E 122°07'  

Dump ship's entire track history